Time;durP1;ratioP1;P1;durP2;ratioP2;P2;SDS_P1;SDS_P2;PMS_P1;PMS_P2;Temp;Humidity;BMP_temperature;BMP_pressure;BME280_temperature;BME280_humidity;BME280_pressure;Samples;Min_cycle;Max_cycle;Signal;HPM_P1;HPM_P2
2020/12/28 00:00:22;;;;;;;40.08;24.55;;;3.80;99.90;;;;;;5053974;28;20029;-78
2020/12/28 00:02:48;;;;;;;48.20;28.48;;;3.80;99.90;;;;;;5052515;28;20029;-77
2020/12/28 00:05:14;;;;;;;49.10;28.33;;;3.80;99.90;;;;;;5053956;28;20032;-77
2020/12/28 00:07:40;;;;;;;36.97;23.17;;;3.80;99.90;;;;;;5053559;28;20031;-77
2020/12/28 00:10:10;;;;;;;44.95;26.58;;;3.80;99.90;;;;;;5052539;28;20025;-77
2020/12/28 00:12:48;;;;;;;49.00;26.10;;;3.90;99.90;;;;;;5053639;28;20102;-78
2020/12/28 00:15:34;;;;;;;51.97;28.10;;;3.90;99.90;;;;;;5053747;28;20021;-78
2020/12/28 00:18:01;;;;;;;37.10;21.85;;;3.90;99.90;;;;;;5052989;28;20029;-77
2020/12/28 00:20:29;;;;;;;34.15;18.60;;;3.90;99.90;;;;;;5051917;28;20025;-77
2020/12/28 00:22:54;;;;;;;35.33;18.17;;;3.90;99.90;;;;;;5052747;28;20076;-77
2020/12/28 00:25:22;;;;;;;34.08;18.40;;;3.90;99.90;;;;;;5052203;28;20040;-77
2020/12/28 00:27:50;;;;;;;32.47;16.90;;;4.00;99.90;;;;;;5053227;28;20063;-77
2020/12/28 00:30:16;;;;;;;34.15;18.33;;;4.00;99.90;;;;;;5053162;28;20032;-77
2020/12/28 00:32:42;;;;;;;30.50;14.80;;;4.00;99.90;;;;;;5052992;28;20066;-77
2020/12/28 00:35:09;;;;;;;27.33;15.30;;;4.10;99.90;;;;;;5068696;28;20025;-77
2020/12/28 00:37:35;;;;;;;29.30;15.48;;;4.10;99.90;;;;;;5052864;28;20456;-77
2020/12/28 00:40:02;;;;;;;29.88;15.55;;;4.10;99.90;;;;;;5052695;28;20029;-77
2020/12/28 00:42:29;;;;;;;28.00;13.45;;;4.20;99.90;;;;;;5052761;28;20025;-77
2020/12/28 00:44:55;;;;;;;24.55;14.15;;;4.20;99.90;;;;;;5051717;28;20024;-77
2020/12/28 00:47:21;;;;;;;24.05;14.35;;;4.20;99.90;;;;;;5053209;28;20036;-77
2020/12/28 00:49:47;;;;;;;31.80;14.80;;;4.30;99.90;;;;;;5052525;28;20071;-77
2020/12/28 00:52:13;;;;;;;29.95;15.98;;;4.30;99.90;;;;;;5052565;28;20028;-77
2020/12/28 00:54:39;;;;;;;23.10;14.43;;;4.40;99.90;;;;;;5052903;28;20025;-77
2020/12/28 00:57:04;;;;;;;21.95;12.95;;;4.40;99.90;;;;;;5052878;28;20049;-77
2020/12/28 00:59:30;;;;;;;40.72;12.45;;;4.40;99.90;;;;;;5053089;28;20035;-77
2020/12/28 01:01:57;;;;;;;20.00;12.10;;;4.50;99.90;;;;;;5053068;28;20060;-77
2020/12/28 01:04:24;;;;;;;16.77;10.43;;;4.50;99.90;;;;;;5052895;28;20361;-77
2020/12/28 01:06:50;;;;;;;15.13;9.55;;;4.60;99.90;;;;;;5053094;28;20369;-77
2020/12/28 01:09:17;;;;;;;15.55;10.13;;;4.60;99.90;;;;;;5053362;28;20025;-77
2020/12/28 01:11:43;;;;;;;20.70;10.93;;;4.70;99.90;;;;;;5053095;28;20420;-78
2020/12/28 01:14:10;;;;;;;14.68;9.77;;;4.70;99.90;;;;;;5053142;28;20044;-78
2020/12/28 01:16:37;;;;;;;13.15;8.20;;;4.80;99.90;;;;;;5051864;28;20021;-78
2020/12/28 01:19:03;;;;;;;16.20;7.97;;;4.80;99.90;;;;;;5053305;28;20025;-77
2020/12/28 01:21:29;;;;;;;14.15;9.07;;;4.80;99.90;;;;;;5052971;28;20021;-78
2020/12/28 01:23:56;;;;;;;13.82;8.20;;;4.90;99.90;;;;;;5051573;28;20041;-77
2020/12/28 01:26:21;;;;;;;12.18;7.35;;;4.90;99.90;;;;;;5053076;28;20033;-77
2020/12/28 01:28:49;;;;;;;14.05;7.82;;;5.00;99.90;;;;;;5052834;28;20380;-78
2020/12/28 01:31:15;;;;;;;13.65;7.80;;;5.00;99.90;;;;;;5052750;28;20075;-78
2020/12/28 01:33:40;;;;;;;13.35;9.20;;;5.00;99.90;;;;;;5052876;28;20029;-78
2020/12/28 01:36:06;;;;;;;13.88;8.52;;;5.00;99.90;;;;;;5056197;28;20021;-77
2020/12/28 01:38:32;;;;;;;13.00;8.60;;;5.10;99.90;;;;;;5055164;28;20029;-78
2020/12/28 01:40:59;;;;;;;13.90;8.07;;;5.10;99.90;;;;;;5056446;28;20021;-78
2020/12/28 01:43:28;;;;;;;10.90;6.97;;;5.10;99.90;;;;;;5055250;28;20021;-78
2020/12/28 01:45:54;;;;;;;13.67;8.43;;;5.20;99.90;;;;;;5056410;28;20021;-78
2020/12/28 01:48:20;;;;;;;15.55;9.15;;;5.20;99.90;;;;;;5056311;28;20261;-78
2020/12/28 01:50:46;;;;;;;12.52;7.50;;;5.20;99.90;;;;;;5056547;28;20158;-78
2020/12/28 01:53:14;;;;;;;13.00;7.10;;;5.20;99.90;;;;;;5055045;28;20032;-78
2020/12/28 01:55:45;;;;;;;13.88;9.05;;;5.20;99.90;;;;;;5056794;28;20017;-78
2020/12/28 01:58:11;;;;;;;25.42;8.48;;;5.20;99.90;;;;;;5054888;28;20025;-77
2020/12/28 02:00:37;;;;;;;13.48;8.23;;;5.30;99.90;;;;;;5054981;28;20474;-77
2020/12/28 02:03:07;;;;;;;12.77;7.90;;;5.30;99.90;;;;;;5056044;28;20036;-77
2020/12/28 02:05:33;;;;;;;12.25;7.95;;;5.30;99.90;;;;;;5056232;28;20108;-78
2020/12/28 02:08:00;;;;;;;13.98;8.50;;;5.40;99.90;;;;;;5054656;28;20120;-77
2020/12/28 02:10:26;;;;;;;15.13;8.98;;;5.30;99.90;;;;;;5055960;28;20025;-77
2020/12/28 02:12:51;;;;;;;12.85;8.63;;;5.40;99.90;;;;;;5054648;28;20031;-78
2020/12/28 02:15:18;;;;;;;13.52;8.20;;;5.40;99.90;;;;;;5055827;28;20387;-78
2020/12/28 02:17:44;;;;;;;47.10;11.32;;;5.40;99.90;;;;;;5054547;28;20021;-78
2020/12/28 02:20:10;;;;;;;12.38;7.65;;;5.40;99.90;;;;;;5055033;28;20021;-77
2020/12/28 02:22:36;;;;;;;11.80;7.00;;;5.50;99.90;;;;;;5055002;28;20116;-77
2020/12/28 02:25:01;;;;;;;10.63;7.13;;;5.50;99.90;;;;;;5053889;28;20452;-77
2020/12/28 02:27:27;;;;;;;14.48;8.48;;;5.50;99.90;;;;;;5053928;28;20024;-77
2020/12/28 02:29:53;;;;;;;14.07;9.38;;;5.50;99.90;;;;;;5055276;28;20059;-77
2020/12/28 02:32:19;;;;;;;15.90;8.48;;;5.50;99.90;;;;;;5053863;28;20116;-77
2020/12/28 02:34:45;;;;;;;14.95;10.13;;;5.50;99.90;;;;;;5053890;28;20021;-77
2020/12/28 02:37:10;;;;;;;14.95;9.35;;;5.50;99.90;;;;;;5054886;28;20029;-77
2020/12/28 02:39:36;;;;;;;13.07;9.13;;;5.50;99.90;;;;;;5054924;28;20036;-78
2020/12/28 02:42:02;;;;;;;17.83;9.82;;;5.50;99.90;;;;;;5053434;28;20029;-77
2020/12/28 02:44:28;;;;;;;13.15;8.65;;;5.50;99.90;;;;;;5054581;28;20357;-77
2020/12/28 02:46:54;;;;;;;20.00;8.95;;;5.50;99.90;;;;;;5054786;28;20032;-78
2020/12/28 02:49:19;;;;;;;59.75;9.80;;;5.60;99.90;;;;;;5055186;28;20028;-78
2020/12/28 02:51:45;;;;;;;12.93;7.57;;;5.60;99.90;;;;;;5055227;28;20055;-78
2020/12/28 02:54:11;;;;;;;18.67;11.07;;;5.60;99.90;;;;;;5055189;28;20478;-78
2020/12/28 02:56:37;;;;;;;19.45;12.27;;;5.60;99.90;;;;;;5053792;28;20029;-77
2020/12/28 02:59:03;;;;;;;20.58;12.57;;;5.60;99.90;;;;;;5053729;28;20021;-78
2020/12/28 03:01:28;;;;;;;26.63;11.85;;;5.60;99.90;;;;;;5070396;28;20419;-78
2020/12/28 03:03:54;;;;;;;19.80;12.18;;;5.60;99.90;;;;;;5053748;28;20021;-78
2020/12/28 03:06:20;;;;;;;23.33;13.48;;;5.60;99.90;;;;;;5053760;28;20025;-78
2020/12/28 03:08:46;;;;;;;17.42;11.88;;;5.60;99.90;;;;;;5054791;28;20021;-78
2020/12/28 03:11:11;;;;;;;21.80;12.98;;;5.50;99.90;;;;;;5054751;28;20120;-78
2020/12/28 03:13:37;;;;;;;23.13;15.45;;;5.50;99.90;;;;;;5054725;28;20017;-78
2020/12/28 03:16:03;;;;;;;25.90;16.35;;;5.40;99.90;;;;;;5055060;28;20024;-78
2020/12/28 03:18:29;;;;;;;24.10;14.75;;;5.30;99.90;;;;;;5053623;28;20539;-78
2020/12/28 03:20:55;;;;;;;20.27;12.88;;;5.20;99.90;;;;;;5055357;28;20029;-78
2020/12/28 03:23:21;;;;;;;19.92;13.82;;;5.10;99.90;;;;;;5054366;28;20040;-78
2020/12/28 03:25:47;;;;;;;20.95;14.30;;;5.00;99.90;;;;;;5054726;28;20488;-78
2020/12/28 03:28:13;;;;;;;26.20;16.13;;;5.00;99.90;;;;;;5054587;28;20056;-78
2020/12/28 03:30:39;;;;;;;27.20;17.25;;;4.90;99.90;;;;;;5054406;28;20035;-78
2020/12/28 03:33:05;;;;;;;31.13;18.88;;;4.90;99.90;;;;;;5053216;28;20028;-78
2020/12/28 03:35:31;;;;;;;27.48;17.20;;;4.90;99.90;;;;;;5053072;28;20032;-78
2020/12/28 03:37:56;;;;;;;31.65;20.05;;;4.80;99.90;;;;;;5055123;28;20157;-78
2020/12/28 03:40:22;;;;;;;42.13;22.73;;;4.70;99.90;;;;;;5054403;28;20448;-78
2020/12/28 03:42:48;;;;;;;48.28;27.25;;;4.60;99.90;;;;;;5052996;28;20036;-78
2020/12/28 03:45:14;;;;;;;60.40;31.75;;;4.40;99.90;;;;;;5052947;28;20465;-78
2020/12/28 03:47:39;;;;;;;55.83;30.75;;;4.40;99.90;;;;;;5052893;28;20021;-78
2020/12/28 03:50:05;;;;;;;58.47;30.23;;;4.30;99.90;;;;;;5053381;28;20039;-78
2020/12/28 03:52:31;;;;;;;59.72;31.83;;;4.30;99.90;;;;;;5052890;28;20021;-78
2020/12/28 03:54:57;;;;;;;65.97;33.35;;;4.20;99.90;;;;;;5054027;28;20021;-78
2020/12/28 03:57:23;;;;;;;67.88;34.55;;;4.20;99.90;;;;;;5053515;28;20021;-78
2020/12/28 03:59:48;;;;;;;67.05;32.97;;;4.20;99.90;;;;;;5054002;28;20074;-78
2020/12/28 04:02:14;;;;;;;66.50;34.45;;;4.10;99.90;;;;;;5052686;28;20021;-78
2020/12/28 04:04:40;;;;;;;66.10;33.05;;;4.10;99.90;;;;;;5052687;28;20033;-78
2020/12/28 04:07:06;;;;;;;68.38;32.80;;;4.10;99.90;;;;;;5053830;28;20021;-78
2020/12/28 04:09:32;;;;;;;67.50;34.00;;;4.10;99.90;;;;;;5052404;28;20029;-78
2020/12/28 04:11:57;;;;;;;67.25;34.58;;;4.00;99.90;;;;;;5053653;28;20465;-78
2020/12/28 04:14:23;;;;;;;77.10;35.22;;;4.00;99.90;;;;;;5053763;28;20024;-78
2020/12/28 04:16:49;;;;;;;73.05;36.20;;;4.00;99.90;;;;;;5052394;28;20101;-78
2020/12/28 04:19:15;;;;;;;87.10;38.75;;;4.00;99.90;;;;;;5052171;28;20031;-77
2020/12/28 04:21:41;;;;;;;72.55;34.67;;;4.00;99.90;;;;;;5053591;28;20064;-77
2020/12/28 04:24:06;;;;;;;76.25;35.78;;;3.90;99.90;;;;;;5053247;28;20484;-77
2020/12/28 04:26:32;;;;;;;70.53;32.88;;;3.90;99.90;;;;;;5053732;28;20057;-77
2020/12/28 04:28:58;;;;;;;65.57;33.13;;;3.90;99.90;;;;;;5052229;28;20021;-77
2020/12/28 04:31:24;;;;;;;70.78;36.80;;;3.90;99.90;;;;;;5053332;28;20094;-78
2020/12/28 04:33:50;;;;;;;72.55;37.13;;;3.90;99.90;;;;;;5053805;28;20021;-77
2020/12/28 04:36:15;;;;;;;71.65;35.10;;;3.90;99.90;;;;;;5052021;28;20196;-78
2020/12/28 04:38:41;;;;;;;84.10;41.92;;;3.90;99.90;;;;;;5053188;28;20516;-77
2020/12/28 04:41:07;;;;;;;88.07;43.20;;;4.00;99.90;;;;;;5053341;28;20787;-78
2020/12/28 04:43:33;;;;;;;91.50;43.80;;;3.90;99.90;;;;;;5053388;28;20033;-78
2020/12/28 04:46:03;;;;;;;86.97;40.17;;;4.00;99.90;;;;;;5051922;28;20082;-77
2020/12/28 04:48:33;;;;;;;78.82;37.60;;;4.00;99.90;;;;;;5051945;28;20032;-77
2020/12/28 04:51:00;;;;;;;85.20;40.28;;;3.90;99.90;;;;;;5052742;28;20029;-77
2020/12/28 04:53:27;;;;;;;88.35;43.65;;;3.90;99.90;;;;;;5052874;28;20104;-77
2020/12/28 04:55:54;;;;;;;85.78;41.88;;;3.90;99.90;;;;;;5052762;28;20025;-77
2020/12/28 04:58:20;;;;;;;93.25;45.40;;;3.90;99.90;;;;;;5052640;28;20017;-77
2020/12/28 05:00:46;;;;;;;90.03;44.25;;;3.90;99.90;;;;;;5052914;28;20103;-77
2020/12/28 05:03:13;;;;;;;100.13;43.80;;;3.90;99.90;;;;;;5052661;28;20541;-78
2020/12/28 05:05:48;;;;;;;88.78;44.90;;;3.90;99.90;;;;;;5053038;28;20460;-77
2020/12/28 05:08:16;;;;;;;99.05;47.17;;;3.90;99.90;;;;;;5053334;28;20021;-77
2020/12/28 05:10:42;;;;;;;96.22;47.67;;;3.90;99.90;;;;;;5056820;28;20021;-77
2020/12/28 05:13:12;;;;;;;116.45;58.70;;;3.90;99.90;;;;;;5055410;28;20502;-77
2020/12/28 05:15:51;;;;;;;170.15;96.25;;;3.90;99.90;;;;;;5056831;28;20017;-77
2020/12/28 05:18:18;;;;;;;148.82;77.80;;;3.90;99.90;;;;;;5056847;28;20025;-77
2020/12/28 05:20:48;;;;;;;113.57;54.47;;;3.90;99.90;;;;;;5055580;28;20120;-77
2020/12/28 05:23:15;;;;;;;98.22;51.80;;;3.90;99.90;;;;;;5055229;28;20056;-77
2020/12/28 05:25:51;;;;;;;103.88;51.45;;;3.90;99.90;;;;;;5057232;28;20056;-78
2020/12/28 05:28:28;;;;;;;103.30;52.30;;;3.80;99.90;;;;;;5072113;28;20112;-78
2020/12/28 05:30:59;;;;;;;114.88;55.13;;;3.70;99.90;;;;;;5054838;28;20493;-76
2020/12/28 05:33:34;;;;;;;126.05;63.35;;;3.80;99.90;;;;;;5056511;28;20025;-78
2020/12/28 05:36:02;;;;;;;129.73;65.25;;;3.70;99.90;;;;;;5056710;28;20024;-78
2020/12/28 05:38:28;;;;;;;155.38;78.22;;;3.70;99.90;;;;;;5056814;28;20472;-78
2020/12/28 05:41:05;;;;;;;140.52;68.57;;;3.50;99.90;;;;;;5056778;28;20055;-78
2020/12/28 05:43:32;;;;;;;116.95;61.47;;;3.50;99.90;;;;;;5055249;28;20032;-78
2020/12/28 05:45:58;;;;;;;140.05;72.72;;;3.50;99.90;;;;;;5055448;28;20483;-78
2020/12/28 05:48:25;;;;;;;156.02;81.88;;;3.40;99.90;;;;;;5056346;28;20384;-78
2020/12/28 05:50:58;;;;;;;156.35;82.57;;;3.40;99.90;;;;;;5056289;28;20464;-77
2020/12/28 05:53:27;;;;;;;173.45;91.43;;;3.40;99.90;;;;;;5071800;28;20025;-78
2020/12/28 05:55:53;;;;;;;165.75;83.35;;;3.40;99.90;;;;;;5056120;28;20100;-78
2020/12/28 05:58:20;;;;;;;146.00;77.68;;;3.40;99.90;;;;;;5056360;28;20435;-78
2020/12/28 06:00:48;;;;;;;154.05;68.90;;;3.40;99.90;;;;;;5056661;28;20368;-78
2020/12/28 06:03:24;;;;;;;115.07;58.00;;;3.40;99.90;;;;;;5056379;28;20376;-78
2020/12/28 06:05:52;;;;;;;102.35;51.08;;;3.40;99.90;;;;;;5054915;28;20053;-78
2020/12/28 06:08:18;;;;;;;89.00;45.15;;;3.30;99.90;;;;;;5055925;28;20040;-78
2020/12/28 06:10:45;;;;;;;100.25;48.67;;;3.30;99.90;;;;;;5071297;28;20029;-78
2020/12/28 06:13:22;;;;;;;108.13;55.92;;;3.30;99.90;;;;;;5055771;28;20025;-78
2020/12/28 06:16:04;;;;;;;135.63;64.80;;;3.30;99.90;;;;;;5056132;28;20024;-78
2020/12/28 06:18:30;;;;;;;111.57;56.05;;;3.30;99.90;;;;;;5071318;28;20017;-78
2020/12/28 06:20:56;;;;;;;109.28;52.50;;;3.30;99.90;;;;;;5054884;28;20384;-77
2020/12/28 06:23:28;;;;;;;167.02;53.08;;;3.30;99.90;;;;;;5055324;28;20045;-78
2020/12/28 06:25:55;;;;;;;92.97;45.75;;;3.30;99.90;;;;;;5055137;28;20099;-77
2020/12/28 06:28:27;;;;;;;73.00;35.38;;;3.30;99.90;;;;;;5053750;28;20029;-77
2020/12/28 06:31:13;;;;;;;77.28;38.85;;;3.30;99.90;;;;;;5055171;28;20029;-78
2020/12/28 06:33:49;;;;;;;74.43;36.75;;;3.20;99.90;;;;;;5055030;28;20488;-77
2020/12/28 06:36:16;;;;;;;74.97;36.70;;;3.20;99.90;;;;;;5055461;28;20036;-77
2020/12/28 06:38:42;;;;;;;77.72;39.92;;;3.20;99.90;;;;;;5055175;28;20665;-76
2020/12/28 06:41:08;;;;;;;79.50;38.15;;;3.30;99.90;;;;;;5053406;28;20032;-77
2020/12/28 06:43:39;;;;;;;73.00;37.28;;;3.30;99.90;;;;;;5054595;28;20476;-77
2020/12/28 06:46:05;;;;;;;77.97;41.60;;;3.30;99.90;;;;;;5055066;28;20350;-77
2020/12/28 06:48:31;;;;;;;75.57;40.83;;;3.30;99.90;;;;;;5055072;28;20029;-77
2020/12/28 06:51:08;;;;;;;78.03;40.53;;;3.30;99.90;;;;;;5054263;28;20716;-76
2020/12/28 06:53:34;;;;;;;84.80;43.38;;;3.40;99.90;;;;;;5054297;28;20104;-77
2020/12/28 06:56:08;;;;;;;90.93;46.15;;;3.40;99.90;;;;;;5054276;28;20112;-77
2020/12/28 06:58:33;;;;;;;104.80;54.35;;;3.40;99.90;;;;;;5054231;28;20453;-77
2020/12/28 07:01:05;;;;;;;127.97;65.78;;;3.40;99.90;;;;;;5054828;28;20036;-77
2020/12/28 07:03:32;;;;;;;140.60;74.78;;;3.40;99.90;;;;;;5054601;28;20079;-77
2020/12/28 07:06:06;;;;;;;155.93;86.47;;;3.50;99.90;;;;;;5054502;28;20078;-77
2020/12/28 07:08:39;;;;;;;138.05;78.82;;;3.40;99.90;;;;;;5052999;28;20029;-77
2020/12/28 07:11:06;;;;;;;137.00;75.93;;;3.40;99.90;;;;;;5052644;28;20025;-77
2020/12/28 07:13:32;;;;;;;128.85;71.28;;;3.40;99.90;;;;;;5054596;28;20044;-76
2020/12/28 07:16:04;;;;;;;126.00;64.18;;;3.40;99.90;;;;;;5054558;28;20021;-77
2020/12/28 07:18:31;;;;;;;92.47;51.28;;;3.50;99.90;;;;;;5054815;28;20029;-77
2020/12/28 07:21:00;;;;;;;98.78;56.15;;;3.60;99.90;;;;;;5054488;28;20025;-77
2020/12/28 07:23:27;;;;;;;90.32;51.05;;;3.70;99.90;;;;;;5054597;28;20040;-77
2020/12/28 07:26:10;;;;;;;99.65;57.83;;;3.70;99.90;;;;;;5054378;28;20040;-77
2020/12/28 07:28:38;;;;;;;111.82;61.03;;;3.90;99.90;;;;;;5054438;28;20096;-77
2020/12/28 07:31:05;;;;;;;102.50;56.22;;;4.00;99.90;;;;;;5054213;28;20025;-77
2020/12/28 07:33:31;;;;;;;131.32;69.38;;;4.00;99.90;;;;;;5052956;28;20021;-77
2020/12/28 07:36:20;;;;;;;135.05;70.05;;;4.10;99.90;;;;;;5054209;28;20025;-77
2020/12/28 07:38:48;;;;;;;103.72;54.47;;;4.20;99.90;;;;;;5054046;28;20021;-77
2020/12/28 07:41:15;;;;;;;94.63;53.17;;;4.20;99.90;;;;;;5053962;28;20131;-77
2020/12/28 07:44:14;;;;;;;83.15;46.58;;;4.30;99.90;;;;;;5052416;28;20067;-77
2020/12/28 07:46:49;;;;;;;70.78;41.55;;;4.30;99.90;;;;;;5044984;28;20199;-77
2020/12/28 07:49:27;;;;;;;91.25;49.08;;;4.40;99.90;;;;;;5051885;28;20373;-77
2020/12/28 07:52:14;;;;;;;95.38;52.13;;;4.40;99.90;;;;;;5052182;28;20372;-77
2020/12/28 07:54:44;;;;;;;572.75;78.53;;;4.40;99.90;;;;;;5053437;28;20097;-76
2020/12/28 07:57:39;;;;;;;139.73;54.05;;;4.50;99.90;;;;;;5053716;28;20177;-78
2020/12/28 08:00:07;;;;;;;98.20;53.60;;;4.50;99.90;;;;;;5058627;28;20060;-77
2020/12/28 08:02:48;;;;;;;86.57;51.20;;;4.50;99.90;;;;;;5052544;28;20380;-77
2020/12/28 08:05:14;;;;;;;;;;;4.60;99.90;;;;;;5052894;28;20025;-77
2020/12/28 08:07:40;;;;;;;47.90;30.17;;;4.70;99.90;;;;;;5052525;28;19958;-78
2020/12/28 08:10:10;;;;;;;38.40;25.17;;;4.70;99.90;;;;;;5053524;28;20024;-78
2020/12/28 08:12:49;;;;;;;28.92;19.75;;;4.80;99.90;;;;;;5053610;28;20415;-78
2020/12/28 08:15:15;;;;;;;30.05;19.50;;;4.90;99.90;;;;;;5053304;28;20040;-78
2020/12/28 08:17:40;;;;;;;32.53;20.65;;;5.10;99.90;;;;;;5052277;28;20025;-75
2020/12/28 08:20:15;;;;;;;34.63;21.50;;;5.30;99.90;;;;;;5051572;28;20021;-76
2020/12/28 08:22:41;;;;;;;30.10;20.13;;;5.50;99.90;;;;;;5051599;28;20064;-76
2020/12/28 08:25:09;;;;;;;32.75;19.38;;;5.70;99.90;;;;;;5051751;28;20025;-76
2020/12/28 08:27:36;;;;;;;21.77;13.65;;;5.90;99.90;;;;;;5051503;28;20083;-76
2020/12/28 08:30:08;;;;;;;25.88;14.73;;;6.00;99.90;;;;;;5050063;28;20557;-75
2020/12/28 08:32:35;;;;;;;23.75;13.55;;;6.00;99.90;;;;;;5051251;28;20467;-75
2020/12/28 08:35:03;;;;;;;23.20;15.02;;;6.10;99.90;;;;;;5051139;28;20435;-75
2020/12/28 08:37:29;;;;;;;55.10;26.05;;;6.00;99.90;;;;;;5050347;28;20021;-75
2020/12/28 08:39:54;;;;;;;43.67;28.83;;;6.00;99.90;;;;;;5051216;28;20036;-77
2020/12/28 08:42:32;;;;;;;117.00;71.53;;;6.10;99.90;;;;;;5051121;28;20455;-77
2020/12/28 08:45:00;;;;;;;1829.25;872.58;;;6.20;99.90;;;;;;5050010;28;20552;-80
2020/12/28 08:47:28;;;;;;;618.30;391.23;;;6.40;99.90;;;;;;5051001;28;20032;-78
2020/12/28 08:49:55;;;;;;;195.45;102.30;;;6.60;99.90;;;;;;5050795;28;20021;-77
2020/12/28 08:52:22;;;;;;;49.13;24.30;;;6.70;99.90;;;;;;5052555;28;20025;-78
2020/12/28 08:54:59;;;;;;;31.23;17.25;;;6.70;99.90;;;;;;5051785;28;20472;-78
2020/12/28 08:57:27;;;;;;;44.80;24.33;;;6.60;99.90;;;;;;5053029;28;20021;-78
2020/12/28 08:59:56;;;;;;;30.45;18.63;;;6.70;99.90;;;;;;5035626;28;20025;-78
2020/12/28 09:02:23;;;;;;;27.08;15.98;;;6.70;99.90;;;;;;5041644;28;20028;-78
2020/12/28 09:04:50;;;;;;;18.13;11.65;;;6.80;99.90;;;;;;5053230;28;20028;-78
2020/12/28 09:07:17;;;;;;;23.30;12.55;;;6.80;99.90;;;;;;5068394;28;20021;-78
2020/12/28 09:09:44;;;;;;;14.40;9.20;;;6.90;99.90;;;;;;5052952;28;20029;-78
2020/12/28 09:12:10;;;;;;;23.25;14.93;;;7.00;99.90;;;;;;5068062;28;20076;-78
2020/12/28 09:14:37;;;;;;;17.17;10.48;;;7.10;99.90;;;;;;5052943;28;20427;-78
2020/12/28 09:17:03;;;;;;;18.17;8.80;;;7.20;99.90;;;;;;5052723;28;20025;-78
2020/12/28 09:19:29;;;;;;;13.73;8.40;;;7.20;99.90;;;;;;5052902;28;20021;-78
2020/12/28 09:21:56;;;;;;;16.85;10.43;;;7.30;99.90;;;;;;5051851;28;20020;-78
2020/12/28 09:24:23;;;;;;;17.42;11.18;;;7.30;99.90;;;;;;5050058;28;20147;-77
2020/12/28 09:26:50;;;;;;;33.60;18.17;;;7.30;99.90;;;;;;5050960;28;20104;-76
2020/12/28 09:29:15;;;;;;;23.27;13.60;;;7.30;99.90;;;;;;5050559;28;20013;-78
2020/12/28 09:31:41;;;;;;;16.60;8.80;;;7.40;99.90;;;;;;5051132;28;20032;-78
2020/12/28 09:34:07;;;;;;;22.17;9.70;;;7.40;99.90;;;;;;5051021;28;20024;-76
2020/12/28 09:36:39;;;;;;;18.27;10.52;;;7.50;99.90;;;;;;5051799;28;20483;-76
2020/12/28 09:39:05;;;;;;;26.90;15.95;;;7.60;99.90;;;;;;5048973;28;20075;-76
2020/12/28 09:41:31;;;;;;;20.90;13.00;;;7.60;99.90;;;;;;5050532;28;20060;-77
2020/12/28 09:43:57;;;;;;;17.90;11.60;;;7.80;99.90;;;;;;5050344;28;20060;-76
2020/12/28 09:46:23;;;;;;;26.00;15.50;;;7.80;99.90;;;;;;5050510;28;20472;-77
2020/12/28 09:48:50;;;;;;;41.55;26.30;;;7.80;99.90;;;;;;5050742;28;20029;-77
2020/12/28 09:51:17;;;;;;;24.73;16.67;;;7.90;99.90;;;;;;5050440;28;20040;-77
2020/12/28 09:53:43;;;;;;;33.40;17.58;;;8.00;99.90;;;;;;5051774;28;20357;-77
2020/12/28 09:56:10;;;;;;;26.42;17.05;;;8.20;99.90;;;;;;5053431;28;20088;-78
2020/12/28 09:58:36;;;;;;;26.33;14.23;;;8.50;99.90;;;;;;5055122;28;20024;-78
2020/12/28 10:01:05;;;;;;;152.93;74.03;;;8.70;99.90;;;;;;5055443;28;20036;-78
2020/12/28 10:03:31;;;;;;;185.63;79.20;;;9.10;99.90;;;;;;5051605;28;20544;-77
2020/12/28 10:05:57;;;;;;;24.27;12.75;;;9.30;99.90;;;;;;5053967;28;20021;-77
2020/12/28 10:08:23;;;;;;;48.33;25.42;;;9.50;99.90;;;;;;5053805;28;20025;-77
2020/12/28 10:10:49;;;;;;;30.77;18.20;;;9.50;99.90;;;;;;5053642;28;20096;-77
2020/12/28 10:13:15;;;;;;;35.95;18.63;;;9.30;99.90;;;;;;5053332;28;20155;-76
2020/12/28 10:15:41;;;;;;;32.67;16.35;;;9.20;99.90;;;;;;5054017;28;20094;-76
2020/12/28 10:18:22;;;;;;;36.45;21.42;;;9.20;99.90;;;;;;5054175;28;20099;-77
2020/12/28 10:20:48;;;;;;;;;;;9.00;99.90;;;;;;5052550;28;20036;-77
2020/12/28 10:23:14;;;;;;;22.23;14.23;;;9.10;99.90;;;;;;5054236;28;19924;-78
2020/12/28 10:25:40;;;;;;;15.25;10.18;;;9.00;99.90;;;;;;5054007;28;20039;-77
2020/12/28 10:28:06;;;;;;;19.52;10.60;;;9.20;99.90;;;;;;5053817;28;20025;-77
2020/12/28 10:30:32;;;;;;;21.45;13.23;;;9.30;99.90;;;;;;5054863;28;20032;-80
2020/12/28 10:32:57;;;;;;;16.67;10.25;;;9.40;99.90;;;;;;5055392;28;20029;-78
2020/12/28 10:35:24;;;;;;;20.80;13.75;;;9.60;99.90;;;;;;5053688;28;20031;-76
2020/12/28 10:37:49;;;;;;;11.73;7.40;;;9.70;99.90;;;;;;5053432;28;20091;-76
2020/12/28 10:40:16;;;;;;;19.30;12.45;;;9.70;99.90;;;;;;5053941;28;20061;-77
2020/12/28 10:42:42;;;;;;;17.85;11.20;;;9.60;99.90;;;;;;5052902;28;20115;-77
2020/12/28 10:45:08;;;;;;;17.58;9.93;;;9.60;99.90;;;;;;5054133;28;20020;-78
2020/12/28 10:47:34;;;;;;;13.55;8.40;;;9.60;99.90;;;;;;5054579;28;20120;-78
2020/12/28 10:50:00;;;;;;;17.77;10.05;;;9.60;99.90;;;;;;5053651;28;20028;-78
2020/12/28 10:52:26;;;;;;;17.65;11.15;;;9.50;99.90;;;;;;5054160;28;20028;-77
2020/12/28 10:54:51;;;;;;;15.27;10.07;;;9.60;99.90;;;;;;5052489;28;20021;-78
2020/12/28 10:57:17;;;;;;;15.25;9.70;;;9.50;99.90;;;;;;5054628;28;20020;-78
2020/12/28 10:59:43;;;;;;;15.65;10.18;;;9.50;99.90;;;;;;5053525;28;20025;-78
2020/12/28 11:02:09;;;;;;;17.25;9.25;;;9.50;99.90;;;;;;5053338;28;20028;-78
2020/12/28 11:04:35;;;;;;;15.20;8.68;;;9.50;99.90;;;;;;5054379;28;20025;-79
2020/12/28 11:07:00;;;;;;;18.10;11.20;;;9.40;99.90;;;;;;5054086;28;20549;-78
2020/12/28 11:09:26;;;;;;;22.25;10.10;;;9.40;99.90;;;;;;5053685;28;20067;-78
2020/12/28 11:11:52;;;;;;;20.58;10.98;;;9.40;99.90;;;;;;5052013;28;20021;-77
2020/12/28 11:14:19;;;;;;;21.15;12.48;;;9.30;99.90;;;;;;5053528;28;20087;-78
2020/12/28 11:16:45;;;;;;;20.75;10.63;;;9.30;99.90;;;;;;5053349;28;20028;-79
2020/12/28 11:19:11;;;;;;;18.48;10.00;;;9.30;99.90;;;;;;5054623;28;20021;-78
2020/12/28 11:21:37;;;;;;;16.92;9.85;;;9.30;99.90;;;;;;5069529;28;20040;-78
2020/12/28 11:24:03;;;;;;;17.98;10.48;;;9.30;99.90;;;;;;5053697;28;20084;-78
2020/12/28 11:26:30;;;;;;;23.27;11.35;;;9.30;99.90;;;;;;5053944;28;20036;-78
2020/12/28 11:28:57;;;;;;;22.63;12.50;;;9.30;99.90;;;;;;5053039;28;20035;-78
2020/12/28 11:31:23;;;;;;;29.50;14.15;;;9.30;99.90;;;;;;5052118;28;20032;-77
2020/12/28 11:33:49;;;;;;;33.88;15.88;;;9.20;99.90;;;;;;5052875;28;20561;-76
2020/12/28 11:36:16;;;;;;;73.68;19.50;;;9.20;99.90;;;;;;5052649;28;20367;-77
2020/12/28 11:38:45;;;;;;;25.05;14.18;;;9.20;99.90;;;;;;5053476;28;20020;-78
2020/12/28 11:41:15;;;;;;;62.93;26.93;;;9.20;99.90;;;;;;5053751;28;20086;-77
2020/12/28 11:43:42;;;;;;;60.88;33.22;;;9.20;99.90;;;;;;5051587;28;20029;-76
2020/12/28 11:46:09;;;;;;;49.92;26.90;;;9.20;99.90;;;;;;5050775;28;20037;-76
2020/12/28 11:48:36;;;;;;;51.42;27.63;;;9.10;99.90;;;;;;5051970;28;20028;-76
2020/12/28 11:51:06;;;;;;;130.68;47.85;;;9.20;99.90;;;;;;5052015;28;20039;-76
2020/12/28 11:53:33;;;;;;;299.92;96.88;;;9.20;99.90;;;;;;5052460;28;20025;-76
2020/12/28 11:56:02;;;;;;;191.27;84.25;;;9.10;99.90;;;;;;5052220;28;20025;-76
2020/12/28 11:58:34;;;;;;;242.75;118.18;;;9.20;99.90;;;;;;5052063;28;20070;-76
2020/12/28 12:01:01;;;;;;;97.75;49.17;;;9.20;99.90;;;;;;5051169;28;20024;-78
2020/12/28 12:03:30;;;;;;;29.00;18.23;;;9.30;99.90;;;;;;5052658;28;20017;-78
2020/12/28 12:05:57;;;;;;;33.40;19.73;;;9.30;99.90;;;;;;5053270;28;20067;-78
2020/12/28 12:08:24;;;;;;;28.65;17.92;;;9.20;99.90;;;;;;5053272;28;20070;-78
2020/12/28 12:10:51;;;;;;;24.73;17.15;;;9.20;99.90;;;;;;5053123;28;20036;-78
2020/12/28 12:13:17;;;;;;;27.45;19.20;;;9.20;99.90;;;;;;5067986;28;20047;-78
2020/12/28 12:15:53;;;;;;;22.60;13.35;;;9.20;99.90;;;;;;5052093;28;20017;-77
2020/12/28 12:18:19;;;;;;;24.80;15.82;;;9.20;99.90;;;;;;5052249;28;20033;-78
2020/12/28 12:20:44;;;;;;;26.63;16.70;;;9.20;99.90;;;;;;5052145;28;20060;-78
2020/12/28 12:23:10;;;;;;;27.65;16.23;;;9.20;99.90;;;;;;5050934;28;20053;-77
2020/12/28 12:25:36;;;;;;;35.58;19.45;;;9.20;99.90;;;;;;5052691;28;20033;-77
2020/12/28 12:28:03;;;;;;;31.92;15.75;;;9.20;99.90;;;;;;5052610;28;20029;-78
2020/12/28 12:30:29;;;;;;;31.83;17.95;;;9.10;99.90;;;;;;5052712;28;20040;-78
2020/12/28 12:32:58;;;;;;;37.97;19.83;;;9.10;99.90;;;;;;5051083;28;20081;-77
2020/12/28 12:35:24;;;;;;;30.95;20.70;;;9.10;99.90;;;;;;5051888;28;20036;-77
2020/12/28 12:37:49;;;;;;;31.83;17.50;;;9.10;99.90;;;;;;5052347;28;20353;-77
2020/12/28 12:40:16;;;;;;;39.88;23.20;;;9.10;99.90;;;;;;5052363;28;20122;-77